createdAt,value
2023-01-26T00:01:20.427Z,29.13
2023-01-26T00:03:47.532Z,20.55
2023-01-26T00:06:16.879Z,16.65
2023-01-26T00:08:45.448Z,25.15
2023-01-26T00:11:14.135Z,25.95
2023-01-26T00:13:41.146Z,23.05
2023-01-26T00:16:13.040Z,18.63
2023-01-26T00:18:40.146Z,21.60
2023-01-26T00:21:08.288Z,20.63
2023-01-26T00:23:35.774Z,25.70
2023-01-26T00:26:05.424Z,30.42
2023-01-26T00:28:31.748Z,23.67
2023-01-26T00:31:06.966Z,43.03
2023-01-26T00:33:33.477Z,27.35
2023-01-26T00:36:00.346Z,23.05
2023-01-26T00:38:26.987Z,26.33
2023-01-26T00:40:53.387Z,23.35
2023-01-26T00:43:20.424Z,23.30
2023-01-26T00:45:47.119Z,24.30
2023-01-26T00:48:13.449Z,26.63
2023-01-26T00:50:39.929Z,23.10
2023-01-26T00:53:06.328Z,22.67
2023-01-26T00:55:32.669Z,19.75
2023-01-26T00:58:05.008Z,20.35
2023-01-26T01:00:32.850Z,17.92
2023-01-26T01:02:59.694Z,20.05
2023-01-26T01:05:29.111Z,21.60
2023-01-26T01:07:55.559Z,21.65
2023-01-26T01:10:22.482Z,23.15
2023-01-26T01:12:48.921Z,24.10
2023-01-26T01:15:15.976Z,23.77
2023-01-26T01:17:42.416Z,23.25
2023-01-26T01:20:10.537Z,22.35
2023-01-26T01:22:37.760Z,24.27
2023-01-26T01:25:04.792Z,23.48
2023-01-26T01:27:31.296Z,21.73
2023-01-26T01:29:57.597Z,23.48
2023-01-26T01:32:24.021Z,20.30
2023-01-26T01:34:50.433Z,19.38
2023-01-26T01:37:17.324Z,21.85
2023-01-26T01:39:43.690Z,21.13
2023-01-26T01:42:10.140Z,20.25
2023-01-26T01:44:38.071Z,21.23
2023-01-26T01:47:23.064Z,20.42
2023-01-26T01:49:52.396Z,22.35
2023-01-26T01:52:28.000Z,24.80
2023-01-26T01:54:59.580Z,26.33
2023-01-26T01:57:44.805Z,28.70
2023-01-26T02:00:14.351Z,31.00
2023-01-26T02:02:44.041Z,30.00
2023-01-26T02:05:23.717Z,32.15
2023-01-26T02:07:50.911Z,29.52
2023-01-26T02:10:19.555Z,22.98
2023-01-26T02:12:53.466Z,20.15
2023-01-26T02:15:19.817Z,23.67
2023-01-26T02:17:46.190Z,20.77
2023-01-26T02:20:28.371Z,18.90
2023-01-26T02:23:14.282Z,19.55
2023-01-26T02:26:05.747Z,21.10
2023-01-26T02:30:59.665Z,16.67
2023-01-26T02:33:29.299Z,20.80
2023-01-26T02:36:00.383Z,21.67
2023-01-26T02:38:39.246Z,20.25
2023-01-26T02:41:09.106Z,21.63
2023-01-26T02:43:35.957Z,24.92
2023-01-26T02:46:04.042Z,21.00
2023-01-26T02:48:52.129Z,21.23
2023-01-26T02:51:18.564Z,21.25
2023-01-26T02:53:46.294Z,22.65
2023-01-26T02:56:12.602Z,23.08
2023-01-26T02:58:39.018Z,20.60
2023-01-26T03:01:05.361Z,21.50
2023-01-26T03:03:49.664Z,22.23
2023-01-26T03:06:16.226Z,22.42
2023-01-26T03:08:42.636Z,20.80
2023-01-26T03:11:09.421Z,21.02
2023-01-26T03:13:36.156Z,19.17
2023-01-26T03:16:07.311Z,22.08
2023-01-26T03:21:40.137Z,24.65
2023-01-26T03:24:30.162Z,24.30
2023-01-26T03:29:43.249Z,26.02
2023-01-26T03:32:10.689Z,26.15
2023-01-26T03:34:38.461Z,25.65
2023-01-26T03:37:05.248Z,25.35
2023-01-26T03:40:00.571Z,27.63
2023-01-26T03:42:46.437Z,24.67
2023-01-26T03:45:31.973Z,24.20
2023-01-26T03:48:29.402Z,25.77
2023-01-26T03:51:14.716Z,23.58
2023-01-26T03:53:59.974Z,27.77
2023-01-26T03:56:32.331Z,27.95
2023-01-26T03:59:08.603Z,26.00
2023-01-26T04:01:37.553Z,31.02
2023-01-26T04:04:23.409Z,32.38
2023-01-26T04:07:09.562Z,31.02
2023-01-26T04:09:42.132Z,31.75
2023-01-26T04:12:10.185Z,40.97
2023-01-26T04:15:02.197Z,64.20
2023-01-26T04:17:46.854Z,36.05
2023-01-26T04:20:32.527Z,29.63
2023-01-26T04:22:58.954Z,25.10
2023-01-26T04:25:25.317Z,29.42
2023-01-26T04:27:52.106Z,27.77
2023-01-26T04:30:19.445Z,29.00
2023-01-26T04:32:46.413Z,29.45
2023-01-26T04:35:13.459Z,24.13
2023-01-26T04:37:40.215Z,28.83
2023-01-26T04:40:07.270Z,30.52
2023-01-26T04:42:35.376Z,25.48
2023-01-26T04:45:04.032Z,27.40
2023-01-26T04:47:31.398Z,28.48
2023-01-26T04:49:57.806Z,29.80
2023-01-26T04:52:24.192Z,28.90
2023-01-26T04:54:51.067Z,34.33
2023-01-26T04:57:20.391Z,35.33
2023-01-26T04:59:49.267Z,33.70
2023-01-26T05:02:15.773Z,31.98
2023-01-26T05:04:42.178Z,30.75
2023-01-26T05:07:08.683Z,33.63
2023-01-26T05:09:35.217Z,33.63
2023-01-26T05:12:33.627Z,37.83
2023-01-26T05:15:18.282Z,34.25
2023-01-26T05:18:05.615Z,38.33
2023-01-26T05:20:37.633Z,33.65
2023-01-26T05:23:14.905Z,34.25
2023-01-26T05:25:59.819Z,36.03
2023-01-26T05:28:27.198Z,37.10
2023-01-26T05:30:54.467Z,33.67
2023-01-26T05:33:22.127Z,35.22
2023-01-26T05:35:49.454Z,35.85
2023-01-26T05:38:16.153Z,38.22
2023-01-26T05:40:42.693Z,41.58
2023-01-26T05:43:10.160Z,39.80
2023-01-26T05:45:49.118Z,42.92
2023-01-26T05:48:17.593Z,37.05
2023-01-26T05:50:45.671Z,44.67
2023-01-26T05:53:20.222Z,40.67
2023-01-26T05:55:47.712Z,35.85
2023-01-26T05:58:14.385Z,40.38
2023-01-26T06:00:40.777Z,45.30
2023-01-26T06:03:13.670Z,42.25
2023-01-26T06:05:40.038Z,42.83
2023-01-26T06:08:20.821Z,45.55
2023-01-26T06:11:13.342Z,43.58
2023-01-26T06:13:56.297Z,46.35
2023-01-26T06:16:24.943Z,43.15
2023-01-26T06:18:51.308Z,46.65
2023-01-26T06:21:17.996Z,48.63
2023-01-26T06:23:44.790Z,46.55
2023-01-26T06:26:12.189Z,46.88
2023-01-26T06:28:38.689Z,45.60
2023-01-26T06:31:07.479Z,46.75
2023-01-26T06:33:35.882Z,46.92
2023-01-26T06:36:07.902Z,47.20
2023-01-26T06:38:34.368Z,47.28
2023-01-26T06:41:06.816Z,42.88
2023-01-26T06:43:35.040Z,48.03
2023-01-26T06:46:02.692Z,47.03
2023-01-26T06:48:31.982Z,49.35
2023-01-26T06:51:25.930Z,59.38
2023-01-26T06:53:56.978Z,51.80
2023-01-26T06:56:39.797Z,62.05
2023-01-26T06:59:24.863Z,53.08
2023-01-26T07:02:18.844Z,58.85
2023-01-26T07:04:46.078Z,64.07
2023-01-26T07:07:12.430Z,61.40
2023-01-26T07:09:39.710Z,63.15
2023-01-26T07:12:06.077Z,60.05
2023-01-26T07:14:32.887Z,62.75
2023-01-26T07:16:59.210Z,51.30
2023-01-26T07:19:25.623Z,60.38
2023-01-26T07:21:51.950Z,70.55
2023-01-26T07:24:19.160Z,52.10
2023-01-26T07:26:45.485Z,59.97
2023-01-26T07:29:11.804Z,93.38
2023-01-26T07:31:38.140Z,85.32
2023-01-26T07:34:04.472Z,66.97
2023-01-26T07:36:30.828Z,55.40
2023-01-26T07:38:57.332Z,48.30
2023-01-26T07:41:23.637Z,49.50
2023-01-26T07:43:50.832Z,58.90
2023-01-26T07:46:18.390Z,53.33
2023-01-26T07:48:44.832Z,59.45
2023-01-26T07:51:11.890Z,57.15
2023-01-26T07:53:43.391Z,56.78
2023-01-26T07:56:14.800Z,55.70
2023-01-26T07:58:41.281Z,54.35
2023-01-26T08:01:13.421Z,50.03
2023-01-26T08:03:40.392Z,47.15
2023-01-26T08:06:09.626Z,44.85
2023-01-26T08:08:41.077Z,46.97
2023-01-26T08:11:08.380Z,45.25
2023-01-26T08:13:36.189Z,47.28
2023-01-26T08:16:05.562Z,49.75
2023-01-26T08:18:32.163Z,50.72
2023-01-26T08:20:58.840Z,43.15
2023-01-26T08:23:25.198Z,40.67
2023-01-26T08:25:51.600Z,39.78
2023-01-26T08:28:19.892Z,42.33
2023-01-26T08:30:47.304Z,38.55
2023-01-26T08:33:13.831Z,37.63
2023-01-26T08:35:40.200Z,43.80
2023-01-26T08:38:06.608Z,37.47
2023-01-26T08:40:32.982Z,34.55
2023-01-26T08:43:01.128Z,33.83
2023-01-26T08:45:28.590Z,31.40
2023-01-26T08:47:54.890Z,36.17
2023-01-26T08:50:21.235Z,37.15
2023-01-26T08:52:47.566Z,38.33
2023-01-26T08:55:14.060Z,40.80
2023-01-26T08:57:41.586Z,41.85
2023-01-26T09:00:08.614Z,43.47
2023-01-26T09:02:35.304Z,37.85
2023-01-26T09:05:01.607Z,34.95
2023-01-26T09:07:27.946Z,36.40
2023-01-26T09:09:54.223Z,35.63
2023-01-26T09:12:20.507Z,37.42
2023-01-26T09:14:47.057Z,35.30
2023-01-26T09:17:13.352Z,29.30
2023-01-26T09:19:39.656Z,27.40
2023-01-26T09:22:05.939Z,24.63
2023-01-26T09:24:32.364Z,28.48
2023-01-26T09:26:58.662Z,24.48
2023-01-26T09:29:24.975Z,22.73
2023-01-26T09:31:51.552Z,30.05
2023-01-26T09:34:17.952Z,24.38
2023-01-26T09:36:44.257Z,29.48
2023-01-26T09:39:10.550Z,22.35
2023-01-26T09:41:58.227Z,22.85
2023-01-26T09:44:25.877Z,23.90
2023-01-26T09:47:07.476Z,24.25
2023-01-26T09:49:48.518Z,29.48
2023-01-26T09:52:27.762Z,19.60
2023-01-26T09:55:04.521Z,25.65
2023-01-26T09:57:37.688Z,19.77
2023-01-26T10:00:25.007Z,22.60
2023-01-26T10:02:55.388Z,22.85
2023-01-26T10:05:46.151Z,26.33
2023-01-26T10:08:14.748Z,27.17
2023-01-26T10:11:09.599Z,26.92
2023-01-26T10:13:36.187Z,30.35
2023-01-26T10:16:09.553Z,30.42
2023-01-26T10:18:49.975Z,28.73
2023-01-26T10:21:20.656Z,34.90
2023-01-26T10:23:49.043Z,30.10
2023-01-26T10:26:18.364Z,26.83
2023-01-26T10:28:46.670Z,35.72
2023-01-26T10:31:26.591Z,35.30
2023-01-26T10:33:55.070Z,32.20
2023-01-26T10:36:21.821Z,30.83
2023-01-26T10:38:50.375Z,39.65
2023-01-26T10:41:19.327Z,36.10
2023-01-26T10:43:58.540Z,35.15
2023-01-26T10:46:30.700Z,44.47
2023-01-26T10:49:01.369Z,32.95
2023-01-26T10:51:33.778Z,51.92
2023-01-26T10:54:19.497Z,65.00
2023-01-26T10:56:48.668Z,74.45
2023-01-26T10:59:30.287Z,50.38
2023-01-26T11:02:00.935Z,54.70
2023-01-26T11:04:28.364Z,30.10
2023-01-26T11:06:55.012Z,30.38
2023-01-26T11:09:27.115Z,27.48
2023-01-26T11:12:00.409Z,26.98
2023-01-26T11:14:27.780Z,52.80
2023-01-26T11:17:05.320Z,48.30
2023-01-26T11:20:04.109Z,32.35
2023-01-26T11:22:52.213Z,34.58
2023-01-26T11:25:45.051Z,35.33
2023-01-26T11:28:30.154Z,40.55
2023-01-26T11:31:34.341Z,86.32
2023-01-26T11:34:22.198Z,94.35
2023-01-26T11:36:57.803Z,44.08
2023-01-26T11:39:37.079Z,60.83
2023-01-26T11:42:17.871Z,85.78
2023-01-26T11:45:17.269Z,47.17
2023-01-26T11:48:02.230Z,43.25
2023-01-26T11:50:35.200Z,35.25
2023-01-26T11:53:23.884Z,48.67
2023-01-26T11:56:05.352Z,33.28
2023-01-26T11:58:37.865Z,32.13
2023-01-26T12:01:15.324Z,36.75
2023-01-26T12:03:50.468Z,31.77
2023-01-26T12:06:31.569Z,28.42
2023-01-26T12:09:09.899Z,32.17
2023-01-26T12:11:45.490Z,35.03
2023-01-26T12:14:30.668Z,35.60
2023-01-26T12:17:17.229Z,30.70
2023-01-26T12:20:04.850Z,30.90
2023-01-26T12:22:40.271Z,33.95
2023-01-26T12:25:36.124Z,39.80
2023-01-26T12:28:14.838Z,41.67
2023-01-26T12:31:03.148Z,41.05
2023-01-26T12:33:31.955Z,33.92
2023-01-26T12:36:26.323Z,35.35
2023-01-26T12:39:03.497Z,47.95
2023-01-26T12:41:56.029Z,42.08
2023-01-26T12:44:31.389Z,50.28
2023-01-26T12:47:09.465Z,44.88
2023-01-26T12:49:43.038Z,58.70
2023-01-26T12:52:25.820Z,47.00
2023-01-26T12:55:12.165Z,41.85
2023-01-26T12:57:49.154Z,38.38
2023-01-26T13:00:23.416Z,45.25
2023-01-26T13:02:57.930Z,47.97
2023-01-26T13:05:31.791Z,48.40
2023-01-26T13:07:58.389Z,43.17
2023-01-26T13:10:29.662Z,47.20
2023-01-26T13:15:26.347Z,45.95
2023-01-26T13:17:55.753Z,41.67
2023-01-26T13:20:40.497Z,47.95
2023-01-26T13:23:41.653Z,53.03
2023-01-26T13:26:18.773Z,59.60
2023-01-26T13:28:46.908Z,51.88
2023-01-26T13:31:28.455Z,52.30
2023-01-26T13:33:58.140Z,52.83
2023-01-26T13:36:24.734Z,52.13
2023-01-26T13:39:03.208Z,62.47
2023-01-26T13:41:29.524Z,53.28
2023-01-26T13:44:06.563Z,59.42
2023-01-26T13:46:53.984Z,58.15
2023-01-26T13:49:24.132Z,52.10
2023-01-26T13:51:50.679Z,30.98
2023-01-26T13:54:17.818Z,51.47
2023-01-26T13:57:01.422Z,45.33
2023-01-26T13:59:28.012Z,44.70
2023-01-26T14:01:56.566Z,43.67
2023-01-26T14:04:27.900Z,46.08
2023-01-26T14:07:18.899Z,47.05
2023-01-26T14:09:47.680Z,105.43
2023-01-26T14:12:24.997Z,98.07
2023-01-26T14:14:54.755Z,50.28
2023-01-26T14:17:48.987Z,49.92
2023-01-26T14:20:30.440Z,48.55
2023-01-26T14:23:13.659Z,52.75
2023-01-26T14:25:46.987Z,57.15
2023-01-26T14:28:17.308Z,70.28
2023-01-26T14:30:44.674Z,52.17
2023-01-26T14:33:14.297Z,52.03
2023-01-26T14:35:42.415Z,52.67
2023-01-26T14:38:11.524Z,52.08
2023-01-26T14:40:49.685Z,54.10
2023-01-26T14:43:17.019Z,53.95
2023-01-26T14:45:49.327Z,59.60
2023-01-26T14:48:21.830Z,60.88
2023-01-26T14:50:48.735Z,70.15
2023-01-26T14:53:22.496Z,59.90
2023-01-26T14:55:50.768Z,69.55
2023-01-26T14:58:33.406Z,55.90
2023-01-26T15:01:01.333Z,59.55
2023-01-26T15:03:32.972Z,48.30
2023-01-26T15:06:15.251Z,54.28
2023-01-26T15:08:52.203Z,57.22
2023-01-26T15:11:45.461Z,52.38
2023-01-26T15:14:23.733Z,49.28
2023-01-26T15:16:53.757Z,59.40
2023-01-26T15:19:25.318Z,53.88
2023-01-26T15:21:51.958Z,56.95
2023-01-26T15:24:18.534Z,68.65
2023-01-26T15:26:44.937Z,66.97
2023-01-26T15:29:33.683Z,58.58
2023-01-26T15:32:00.836Z,51.72
2023-01-26T15:34:41.974Z,60.95
2023-01-26T15:37:43.798Z,55.67
2023-01-26T15:40:10.842Z,62.78
2023-01-26T15:42:42.676Z,61.72
2023-01-26T15:45:25.285Z,65.28
2023-01-26T15:47:51.632Z,58.85
2023-01-26T15:50:27.368Z,60.80
2023-01-26T15:52:54.365Z,61.80
2023-01-26T15:55:26.104Z,55.13
2023-01-26T15:57:52.420Z,51.25
2023-01-26T16:00:19.132Z,55.30
2023-01-26T16:02:45.498Z,56.33
2023-01-26T16:05:18.720Z,53.35
2023-01-26T16:07:45.911Z,53.08
2023-01-26T16:10:12.267Z,54.30
2023-01-26T16:12:38.622Z,60.47
2023-01-26T16:15:23.745Z,60.25
2023-01-26T16:17:50.077Z,57.90
2023-01-26T16:20:16.933Z,62.05
2023-01-26T16:22:43.248Z,66.10
2023-01-26T16:25:19.496Z,61.05
2023-01-26T16:27:45.865Z,56.60
2023-01-26T16:30:12.392Z,62.35
2023-01-26T16:32:38.823Z,62.20
2023-01-26T16:35:17.221Z,59.35
2023-01-26T16:37:43.633Z,63.83
2023-01-26T16:40:13.982Z,67.53
2023-01-26T16:42:44.335Z,62.63
2023-01-26T16:45:19.970Z,63.43
2023-01-26T16:47:52.302Z,62.50
2023-01-26T16:50:18.720Z,56.70
2023-01-26T16:52:45.449Z,59.83
2023-01-26T16:55:14.017Z,61.65
2023-01-26T16:57:41.593Z,48.63
2023-01-26T17:00:14.694Z,49.45
2023-01-26T17:02:41.966Z,50.10
2023-01-26T17:05:17.525Z,63.75
2023-01-26T17:07:44.053Z,68.97
2023-01-26T17:10:12.105Z,88.57
2023-01-26T17:12:38.817Z,69.13
2023-01-26T17:15:06.721Z,58.95
2023-01-26T17:17:33.105Z,66.90
2023-01-26T17:20:17.899Z,64.47
2023-01-26T17:22:45.293Z,75.22
2023-01-26T17:25:13.896Z,71.68
2023-01-26T17:27:43.271Z,58.80
2023-01-26T17:30:10.317Z,61.72
2023-01-26T17:32:36.626Z,92.80
2023-01-26T17:35:03.104Z,82.93
2023-01-26T17:37:30.612Z,84.25
2023-01-26T17:39:56.959Z,59.10
2023-01-26T17:42:25.222Z,58.72
2023-01-26T17:44:51.719Z,67.95
2023-01-26T17:47:18.009Z,48.92
2023-01-26T17:49:44.303Z,47.90
2023-01-26T17:52:14.026Z,62.72
2023-01-26T17:54:40.644Z,77.00
2023-01-26T17:57:07.300Z,125.45
2023-01-26T17:59:33.723Z,67.25
2023-01-26T18:02:00.251Z,48.97
2023-01-26T18:04:26.601Z,43.85
2023-01-26T18:06:52.996Z,56.78
2023-01-26T18:09:19.502Z,53.05
2023-01-26T18:11:45.811Z,52.90
2023-01-26T18:14:12.094Z,37.70
2023-01-26T18:16:38.418Z,54.47
2023-01-26T18:19:04.862Z,45.45
2023-01-26T18:21:31.792Z,30.42
2023-01-26T18:24:00.953Z,49.47
2023-01-26T18:26:31.222Z,38.28
2023-01-26T18:28:58.215Z,33.90
2023-01-26T18:31:29.935Z,30.55
2023-01-26T18:33:57.849Z,29.70
2023-01-26T18:36:25.439Z,28.40
2023-01-26T18:38:55.408Z,25.38
2023-01-26T18:41:23.108Z,28.08
2023-01-26T18:43:51.893Z,26.75
2023-01-26T18:46:18.799Z,28.85
2023-01-26T18:48:45.571Z,31.17
2023-01-26T18:51:12.589Z,32.95
2023-01-26T18:53:39.252Z,23.23
2023-01-26T18:56:11.517Z,21.38
2023-01-26T18:58:39.276Z,27.90
2023-01-26T19:01:09.814Z,19.08
2023-01-26T19:03:41.537Z,20.55
2023-01-26T19:06:09.463Z,22.75
2023-01-26T19:08:35.813Z,20.70
2023-01-26T19:11:07.134Z,29.90
2023-01-26T19:13:34.103Z,30.23
2023-01-26T19:16:01.130Z,27.40
2023-01-26T19:18:28.161Z,29.98
2023-01-26T19:20:59.037Z,29.55
2023-01-26T19:23:25.491Z,31.65
2023-01-26T19:25:51.828Z,37.88
2023-01-26T19:28:18.136Z,37.35
2023-01-26T19:30:44.941Z,63.70
2023-01-26T19:33:28.827Z,37.78
2023-01-26T19:35:56.535Z,27.13
2023-01-26T19:38:23.771Z,26.20
2023-01-26T19:40:51.955Z,28.73
2023-01-26T19:43:19.240Z,24.95
2023-01-26T19:45:53.961Z,22.80
2023-01-26T19:48:22.092Z,45.28
2023-01-26T19:51:09.937Z,29.50
2023-01-26T19:53:38.376Z,33.10
2023-01-26T19:56:06.806Z,32.83
2023-01-26T19:58:33.344Z,47.42
2023-01-26T20:01:05.571Z,61.38
2023-01-26T20:03:31.890Z,60.55
2023-01-26T20:05:58.720Z,42.75
2023-01-26T20:08:26.163Z,40.22
2023-01-26T20:10:52.761Z,36.78
2023-01-26T20:13:19.462Z,31.65
2023-01-26T20:15:45.976Z,31.33
2023-01-26T20:18:12.300Z,35.60
2023-01-26T20:20:39.269Z,39.70
2023-01-26T20:23:07.411Z,32.85
2023-01-26T20:25:36.467Z,32.22
2023-01-26T20:28:02.962Z,32.42
2023-01-26T20:30:29.262Z,31.88
2023-01-26T20:32:55.651Z,33.85
2023-01-26T20:35:21.981Z,24.15
2023-01-26T20:37:48.447Z,34.42
2023-01-26T20:40:15.150Z,35.20
2023-01-26T20:42:41.619Z,28.17
2023-01-26T20:45:08.609Z,31.15
2023-01-26T20:47:38.051Z,25.10
2023-01-26T20:50:05.325Z,27.88
2023-01-26T20:52:31.655Z,25.88
2023-01-26T20:54:58.043Z,32.58
2023-01-26T20:57:24.531Z,45.85
2023-01-26T20:59:50.886Z,37.20
2023-01-26T21:02:17.332Z,50.60
2023-01-26T21:04:43.724Z,52.22
2023-01-26T21:07:10.083Z,104.97
2023-01-26T21:09:36.538Z,103.47
2023-01-26T21:12:03.530Z,126.00
2023-01-26T21:14:29.844Z,113.18
2023-01-26T21:16:56.371Z,105.35
2023-01-26T21:19:22.865Z,72.32
2023-01-26T21:21:49.316Z,59.90
2023-01-26T21:24:15.719Z,52.75
2023-01-26T21:26:42.058Z,45.72
2023-01-26T21:29:13.456Z,64.65
2023-01-26T21:31:39.802Z,66.80
2023-01-26T21:34:06.222Z,72.53
2023-01-26T21:36:33.920Z,57.33
2023-01-26T21:39:01.075Z,61.13
2023-01-26T21:41:48.737Z,63.25
2023-01-26T21:44:28.934Z,58.35
2023-01-26T21:46:58.095Z,56.80
2023-01-26T21:49:25.559Z,45.65
2023-01-26T21:52:11.289Z,41.38
2023-01-26T21:54:37.771Z,54.42
2023-01-26T21:57:25.802Z,70.28
2023-01-26T21:59:52.850Z,58.00
2023-01-26T22:02:19.228Z,72.78
2023-01-26T22:04:45.551Z,153.32
2023-01-26T22:07:11.890Z,155.52
2023-01-26T22:09:39.231Z,123.30
2023-01-26T22:12:06.649Z,69.65
2023-01-26T22:14:32.943Z,64.20
2023-01-26T22:16:59.319Z,56.90
2023-01-26T22:19:26.073Z,44.88
2023-01-26T22:21:52.591Z,149.10
2023-01-26T22:24:19.432Z,48.45
2023-01-26T22:26:45.821Z,70.80
2023-01-26T22:29:15.105Z,336.73
2023-01-26T22:31:41.766Z,196.93
2023-01-26T22:34:10.499Z,416.48
2023-01-26T22:36:36.955Z,246.95
2023-01-26T22:39:03.727Z,171.93
2023-01-26T22:41:30.533Z,101.05
2023-01-26T22:43:58.904Z,70.63
2023-01-26T22:46:26.936Z,35.42
2023-01-26T22:48:53.380Z,42.13
2023-01-26T22:51:22.284Z,40.38
2023-01-26T22:53:50.085Z,34.60
2023-01-26T22:56:17.259Z,30.52
2023-01-26T22:58:57.160Z,36.35
2023-01-26T23:01:25.986Z,56.85
2023-01-26T23:03:54.372Z,43.05
2023-01-26T23:06:21.821Z,53.70
2023-01-26T23:08:48.232Z,39.92
2023-01-26T23:11:17.590Z,40.17
2023-01-26T23:13:45.789Z,29.48
2023-01-26T23:16:13.160Z,31.70
2023-01-26T23:18:40.261Z,37.53
2023-01-26T23:21:07.171Z,48.50
2023-01-26T23:23:34.273Z,45.60
2023-01-26T23:26:00.968Z,41.83
2023-01-26T23:28:32.538Z,30.13
2023-01-26T23:31:00.279Z,37.35
2023-01-26T23:33:29.195Z,40.97
2023-01-26T23:35:55.819Z,37.55
2023-01-26T23:38:24.019Z,36.10
2023-01-26T23:40:50.913Z,28.67
2023-01-26T23:43:18.331Z,25.67
2023-01-26T23:45:45.794Z,27.80
2023-01-26T23:48:12.527Z,32.35
2023-01-26T23:50:39.072Z,39.85
2023-01-26T23:53:05.764Z,27.95
2023-01-26T23:55:32.171Z,26.60
2023-01-26T23:57:58.650Z,24.20
